sensor_id;sensor_type;location;lat;lon;timestamp;pressure;altitude;pressure_sealevel;temperature;humidity
21236;BME280;10775;42.678;26.324;2023-07-31T00:02:15;98055.63;;;26.43;50.57
21236;BME280;10775;42.678;26.324;2023-07-31T00:04:40;98059.22;;;26.71;49.46
21236;BME280;10775;42.678;26.324;2023-07-31T00:07:06;98076.94;;;26.54;49.83
21236;BME280;10775;42.678;26.324;2023-07-31T00:09:32;98070.50;;;25.79;46.09
21236;BME280;10775;42.678;26.324;2023-07-31T00:11:58;98057.50;;;25.26;53.22
21236;BME280;10775;42.678;26.324;2023-07-31T00:14:24;98038.41;;;26.45;50.22
21236;BME280;10775;42.678;26.324;2023-07-31T00:16:49;98044.63;;;26.83;49.19
21236;BME280;10775;42.678;26.324;2023-07-31T00:19:14;98048.22;;;26.74;48.97
21236;BME280;10775;42.678;26.324;2023-07-31T00:21:40;98031.88;;;25.33;51.49
21236;BME280;10775;42.678;26.324;2023-07-31T00:24:05;98025.78;;;26.28;50.67
21236;BME280;10775;42.678;26.324;2023-07-31T00:26:31;98044.06;;;26.42;49.12
21236;BME280;10775;42.678;26.324;2023-07-31T00:28:56;98038.19;;;26.29;50.47
21236;BME280;10775;42.678;26.324;2023-07-31T00:31:21;98021.72;;;26.14;50.59
21236;BME280;10775;42.678;26.324;2023-07-31T00:33:47;98026.28;;;26.51;49.87
21236;BME280;10775;42.678;26.324;2023-07-31T00:36:12;98024.56;;;26.50;49.75
21236;BME280;10775;42.678;26.324;2023-07-31T00:38:38;98016.53;;;26.50;49.68
21236;BME280;10775;42.678;26.324;2023-07-31T00:41:03;98011.91;;;26.52;49.77
21236;BME280;10775;42.678;26.324;2023-07-31T00:43:29;98016.94;;;26.65;49.49
21236;BME280;10775;42.678;26.324;2023-07-31T00:45:54;98008.16;;;26.73;48.97
21236;BME280;10775;42.678;26.324;2023-07-31T00:48:20;98017.72;;;26.75;49.20
21236;BME280;10775;42.678;26.324;2023-07-31T00:50:46;98001.09;;;26.34;49.70
21236;BME280;10775;42.678;26.324;2023-07-31T00:53:13;98004.56;;;26.54;49.50
21236;BME280;10775;42.678;26.324;2023-07-31T00:55:38;97994.25;;;26.12;50.57
21236;BME280;10775;42.678;26.324;2023-07-31T00:58:04;98003.25;;;26.21;49.65
21236;BME280;10775;42.678;26.324;2023-07-31T01:00:30;97995.44;;;25.61;51.50
21236;BME280;10775;42.678;26.324;2023-07-31T01:02:55;97997.94;;;26.49;49.79
21236;BME280;10775;42.678;26.324;2023-07-31T01:05:29;97985.88;;;25.88;44.82
21236;BME280;10775;42.678;26.324;2023-07-31T01:11:00;97995.94;;;26.60;49.22
21236;BME280;10775;42.678;26.324;2023-07-31T01:13:28;97996.53;;;25.78;46.50
21236;BME280;10775;42.678;26.324;2023-07-31T01:15:54;97984.69;;;24.22;60.93
21236;BME280;10775;42.678;26.324;2023-07-31T01:18:19;97986.28;;;24.03;64.60
21236;BME280;10775;42.678;26.324;2023-07-31T01:20:51;97981.50;;;24.38;64.24
21236;BME280;10775;42.678;26.324;2023-07-31T01:31:18;97962.53;;;24.10;62.09
21236;BME280;10775;42.678;26.324;2023-07-31T01:33:45;97967.38;;;24.47;64.59
21236;BME280;10775;42.678;26.324;2023-07-31T01:36:11;97965.91;;;24.73;60.35
21236;BME280;10775;42.678;26.324;2023-07-31T01:38:37;97961.25;;;24.04;64.80
21236;BME280;10775;42.678;26.324;2023-07-31T01:41:02;97973.72;;;23.73;68.21
21236;BME280;10775;42.678;26.324;2023-07-31T01:43:28;97966.56;;;23.74;67.77
21236;BME280;10775;42.678;26.324;2023-07-31T01:45:53;97974.91;;;23.80;67.63
21236;BME280;10775;42.678;26.324;2023-07-31T01:48:19;97969.13;;;23.64;68.19
21236;BME280;10775;42.678;26.324;2023-07-31T01:50:44;97958.31;;;24.07;67.62
21236;BME280;10775;42.678;26.324;2023-07-31T01:53:10;97967.88;;;24.10;67.62
21236;BME280;10775;42.678;26.324;2023-07-31T01:55:37;97964.31;;;24.30;60.47
21236;BME280;10775;42.678;26.324;2023-07-31T01:58:02;97966.44;;;23.75;69.97
21236;BME280;10775;42.678;26.324;2023-07-31T02:00:28;97961.69;;;23.79;70.46
21236;BME280;10775;42.678;26.324;2023-07-31T02:02:53;97961.81;;;24.08;61.99
21236;BME280;10775;42.678;26.324;2023-07-31T02:05:19;97950.72;;;24.74;58.88
21236;BME280;10775;42.678;26.324;2023-07-31T02:07:44;97971.78;;;25.27;57.47
21236;BME280;10775;42.678;26.324;2023-07-31T02:10:09;97958.69;;;24.55;63.85
21236;BME280;10775;42.678;26.324;2023-07-31T02:12:35;97960.38;;;25.25;55.37
21236;BME280;10775;42.678;26.324;2023-07-31T02:15:01;97956.09;;;26.00;53.36
21236;BME280;10775;42.678;26.324;2023-07-31T02:17:26;97961.88;;;25.96;52.88
21236;BME280;10775;42.678;26.324;2023-07-31T02:19:51;97944.97;;;25.76;52.80
21236;BME280;10775;42.678;26.324;2023-07-31T02:22:17;97963.59;;;25.68;52.52
21236;BME280;10775;42.678;26.324;2023-07-31T02:24:43;97967.78;;;25.99;52.66
21236;BME280;10775;42.678;26.324;2023-07-31T02:27:08;97954.31;;;25.62;53.38
21236;BME280;10775;42.678;26.324;2023-07-31T02:29:34;97958.19;;;26.07;52.36
21236;BME280;10775;42.678;26.324;2023-07-31T02:31:59;97956.94;;;26.38;51.28
21236;BME280;10775;42.678;26.324;2023-07-31T02:34:24;97956.81;;;25.83;52.29
21236;BME280;10775;42.678;26.324;2023-07-31T02:36:50;97960.41;;;26.21;51.57
21236;BME280;10775;42.678;26.324;2023-07-31T02:39:15;97969.03;;;26.42;51.02
21236;BME280;10775;42.678;26.324;2023-07-31T02:41:41;97969.22;;;25.94;49.79
21236;BME280;10775;42.678;26.324;2023-07-31T02:44:06;97965.84;;;25.63;52.89
21236;BME280;10775;42.678;26.324;2023-07-31T02:46:32;97974.84;;;26.00;52.08
21236;BME280;10775;42.678;26.324;2023-07-31T02:48:57;97982.28;;;26.07;51.81
21236;BME280;10775;42.678;26.324;2023-07-31T02:51:23;97975.09;;;26.07;51.28
21236;BME280;10775;42.678;26.324;2023-07-31T02:53:48;97988.06;;;26.02;51.77
21236;BME280;10775;42.678;26.324;2023-07-31T02:56:14;97978.44;;;26.19;51.30
21236;BME280;10775;42.678;26.324;2023-07-31T02:58:40;97977.25;;;26.41;50.82
21236;BME280;10775;42.678;26.324;2023-07-31T03:01:05;97983.41;;;25.07;53.97
21236;BME280;10775;42.678;26.324;2023-07-31T03:03:31;97967.28;;;25.57;52.92
21236;BME280;10775;42.678;26.324;2023-07-31T03:05:56;97976.25;;;25.95;52.05
21236;BME280;10775;42.678;26.324;2023-07-31T03:08:22;97975.25;;;26.06;51.62
21236;BME280;10775;42.678;26.324;2023-07-31T03:10:47;97968.06;;;24.49;56.37
21236;BME280;10775;42.678;26.324;2023-07-31T03:13:12;97970.75;;;25.09;54.78
21236;BME280;10775;42.678;26.324;2023-07-31T03:15:38;97968.66;;;25.71;52.78
21236;BME280;10775;42.678;26.324;2023-07-31T03:18:04;97977.50;;;26.00;52.03
21236;BME280;10775;42.678;26.324;2023-07-31T03:20:30;97970.09;;;25.36;53.45
21236;BME280;10775;42.678;26.324;2023-07-31T03:22:55;97974.44;;;25.76;52.61
21236;BME280;10775;42.678;26.324;2023-07-31T03:25:21;97988.34;;;25.99;52.04
21236;BME280;10775;42.678;26.324;2023-07-31T03:27:46;97984.31;;;26.32;50.89
21236;BME280;10775;42.678;26.324;2023-07-31T03:30:12;97993.72;;;26.46;50.62
21236;BME280;10775;42.678;26.324;2023-07-31T03:32:37;97990.19;;;26.45;50.18
21236;BME280;10775;42.678;26.324;2023-07-31T03:35:03;97978.97;;;26.22;50.86
21236;BME280;10775;42.678;26.324;2023-07-31T03:37:28;97985.53;;;26.48;50.18
21236;BME280;10775;42.678;26.324;2023-07-31T03:39:54;97996.66;;;26.53;50.18
21236;BME280;10775;42.678;26.324;2023-07-31T03:42:19;97996.22;;;26.57;49.90
21236;BME280;10775;42.678;26.324;2023-07-31T03:44:45;97994.72;;;26.35;50.35
21236;BME280;10775;42.678;26.324;2023-07-31T03:47:10;97994.41;;;26.01;51.43
21236;BME280;10775;42.678;26.324;2023-07-31T03:49:36;98004.78;;;26.23;50.87
21236;BME280;10775;42.678;26.324;2023-07-31T03:52:01;98012.50;;;26.36;50.47
21236;BME280;10775;42.678;26.324;2023-07-31T03:54:27;98009.41;;;26.41;50.27
21236;BME280;10775;42.678;26.324;2023-07-31T03:56:52;98013.88;;;26.40;50.31
21236;BME280;10775;42.678;26.324;2023-07-31T03:59:18;98007.69;;;26.40;50.25
21236;BME280;10775;42.678;26.324;2023-07-31T04:01:43;98003.34;;;26.39;50.31
21236;BME280;10775;42.678;26.324;2023-07-31T04:04:08;98014.38;;;26.26;50.62
21236;BME280;10775;42.678;26.324;2023-07-31T04:06:34;98008.88;;;26.18;50.83
21236;BME280;10775;42.678;26.324;2023-07-31T04:08:59;98013.97;;;26.21;50.67
21236;BME280;10775;42.678;26.324;2023-07-31T04:11:25;98024.09;;;26.27;50.66
21236;BME280;10775;42.678;26.324;2023-07-31T04:13:50;98014.66;;;26.23;50.47
21236;BME280;10775;42.678;26.324;2023-07-31T04:16:15;98015.94;;;26.19;50.64
21236;BME280;10775;42.678;26.324;2023-07-31T04:18:41;98024.38;;;26.34;50.38
21236;BME280;10775;42.678;26.324;2023-07-31T04:21:06;98029.75;;;26.24;50.58
21236;BME280;10775;42.678;26.324;2023-07-31T04:23:32;98021.81;;;26.32;50.44
21236;BME280;10775;42.678;26.324;2023-07-31T04:25:57;98012.19;;;25.83;51.60
21236;BME280;10775;42.678;26.324;2023-07-31T04:28:23;98023.28;;;25.97;51.91
21236;BME280;10775;42.678;26.324;2023-07-31T04:30:48;98015.13;;;26.09;51.00
21236;BME280;10775;42.678;26.324;2023-07-31T04:33:13;98021.72;;;26.24;50.37
21236;BME280;10775;42.678;26.324;2023-07-31T04:35:39;98031.25;;;26.36;50.17
21236;BME280;10775;42.678;26.324;2023-07-31T04:38:04;98029.31;;;26.29;50.32
21236;BME280;10775;42.678;26.324;2023-07-31T04:40:30;98040.97;;;26.37;50.20
21236;BME280;10775;42.678;26.324;2023-07-31T04:42:55;98037.88;;;26.42;49.80
21236;BME280;10775;42.678;26.324;2023-07-31T04:45:21;98046.34;;;26.37;50.01
21236;BME280;10775;42.678;26.324;2023-07-31T04:47:46;98047.75;;;26.41;49.89
21236;BME280;10775;42.678;26.324;2023-07-31T04:50:12;98058.59;;;26.40;50.05
21236;BME280;10775;42.678;26.324;2023-07-31T04:52:37;98056.66;;;26.22;50.33
21236;BME280;10775;42.678;26.324;2023-07-31T04:55:03;98065.81;;;26.30;50.33
21236;BME280;10775;42.678;26.324;2023-07-31T04:57:28;98075.09;;;26.35;50.09
21236;BME280;10775;42.678;26.324;2023-07-31T04:59:54;98073.03;;;26.19;50.30
21236;BME280;10775;42.678;26.324;2023-07-31T05:02:19;98070.47;;;26.18;50.63
21236;BME280;10775;42.678;26.324;2023-07-31T05:04:45;98069.63;;;26.27;50.20
21236;BME280;10775;42.678;26.324;2023-07-31T05:07:10;98074.84;;;26.29;50.25
21236;BME280;10775;42.678;26.324;2023-07-31T05:09:36;98074.16;;;26.17;50.45
21236;BME280;10775;42.678;26.324;2023-07-31T05:12:01;98069.38;;;26.20;50.58
21236;BME280;10775;42.678;26.324;2023-07-31T05:14:27;98071.38;;;25.89;53.81
21236;BME280;10775;42.678;26.324;2023-07-31T05:16:52;98060.34;;;26.12;50.95
21236;BME280;10775;42.678;26.324;2023-07-31T05:19:18;98066.66;;;26.30;50.27
21236;BME280;10775;42.678;26.324;2023-07-31T05:21:43;98066.84;;;26.09;50.74
21236;BME280;10775;42.678;26.324;2023-07-31T05:24:10;98074.97;;;26.27;50.45
21236;BME280;10775;42.678;26.324;2023-07-31T05:26:35;98076.00;;;26.07;51.09
21236;BME280;10775;42.678;26.324;2023-07-31T05:29:01;98076.50;;;26.39;50.13
21236;BME280;10775;42.678;26.324;2023-07-31T05:31:26;98075.94;;;26.55;49.68
21236;BME280;10775;42.678;26.324;2023-07-31T05:33:52;98069.09;;;26.71;49.67
21236;BME280;10775;42.678;26.324;2023-07-31T05:36:17;98072.47;;;25.67;54.55
21236;BME280;10775;42.678;26.324;2023-07-31T05:38:43;98069.38;;;26.11;52.22
21236;BME280;10775;42.678;26.324;2023-07-31T05:41:13;98079.91;;;26.41;52.76
21236;BME280;10775;42.678;26.324;2023-07-31T05:43:39;98070.66;;;26.07;55.42
21236;BME280;10775;42.678;26.324;2023-07-31T05:46:04;98074.75;;;25.91;57.91
21236;BME280;10775;42.678;26.324;2023-07-31T05:48:32;98075.44;;;26.79;56.15
21236;BME280;10775;42.678;26.324;2023-07-31T05:50:59;98074.03;;;26.09;57.38
21236;BME280;10775;42.678;26.324;2023-07-31T05:53:24;98072.41;;;24.78;62.76
21236;BME280;10775;42.678;26.324;2023-07-31T05:55:50;98085.72;;;25.49;59.41
21236;BME280;10775;42.678;26.324;2023-07-31T05:58:15;98092.09;;;25.17;56.38
21236;BME280;10775;42.678;26.324;2023-07-31T06:00:40;98090.88;;;24.60;56.19
21236;BME280;10775;42.678;26.324;2023-07-31T06:03:06;98101.22;;;23.58;58.57
21236;BME280;10775;42.678;26.324;2023-07-31T06:05:32;98104.59;;;23.06;60.19
21236;BME280;10775;42.678;26.324;2023-07-31T06:07:57;98106.16;;;23.74;55.12
21236;BME280;10775;42.678;26.324;2023-07-31T06:10:23;98109.97;;;24.56;50.65
21236;BME280;10775;42.678;26.324;2023-07-31T06:12:48;98114.75;;;24.52;49.81
21236;BME280;10775;42.678;26.324;2023-07-31T06:15:14;98108.53;;;24.72;48.11
21236;BME280;10775;42.678;26.324;2023-07-31T06:17:40;98113.22;;;24.59;51.71
21236;BME280;10775;42.678;26.324;2023-07-31T06:20:06;98120.22;;;23.76;52.50
21236;BME280;10775;42.678;26.324;2023-07-31T06:22:32;98124.75;;;24.18;49.40
21236;BME280;10775;42.678;26.324;2023-07-31T06:24:57;98127.88;;;24.44;49.34
21236;BME280;10775;42.678;26.324;2023-07-31T06:27:23;98129.78;;;24.53;49.64
21236;BME280;10775;42.678;26.324;2023-07-31T06:29:48;98131.53;;;24.43;48.73
21236;BME280;10775;42.678;26.324;2023-07-31T06:32:14;98126.75;;;23.83;73.81
21236;BME280;10775;42.678;26.324;2023-07-31T06:34:39;98129.38;;;24.16;49.94
21236;BME280;10775;42.678;26.324;2023-07-31T06:37:05;98143.41;;;24.29;68.36
21236;BME280;10775;42.678;26.324;2023-07-31T06:39:30;98137.00;;;24.20;49.26
21236;BME280;10775;42.678;26.324;2023-07-31T06:41:56;98142.69;;;24.27;47.59
21236;BME280;10775;42.678;26.324;2023-07-31T06:44:21;98143.44;;;24.18;47.38
21236;BME280;10775;42.678;26.324;2023-07-31T06:46:46;98153.41;;;24.16;54.26
21236;BME280;10775;42.678;26.324;2023-07-31T06:49:12;98155.28;;;24.04;54.33
21236;BME280;10775;42.678;26.324;2023-07-31T06:51:37;98154.56;;;24.02;51.92
21236;BME280;10775;42.678;26.324;2023-07-31T06:54:03;98160.00;;;23.57;61.91
21236;BME280;10775;42.678;26.324;2023-07-31T06:56:29;98173.88;;;23.94;58.51
21236;BME280;10775;42.678;26.324;2023-07-31T06:58:55;98166.88;;;23.93;55.75
21236;BME280;10775;42.678;26.324;2023-07-31T07:01:20;98170.66;;;24.12;58.04
21236;BME280;10775;42.678;26.324;2023-07-31T07:03:46;98177.69;;;24.13;58.94
21236;BME280;10775;42.678;26.324;2023-07-31T07:06:11;98184.84;;;23.69;66.47
21236;BME280;10775;42.678;26.324;2023-07-31T07:08:37;98178.47;;;23.60;64.19
21236;BME280;10775;42.678;26.324;2023-07-31T07:11:02;98171.22;;;22.83;75.35
21236;BME280;10775;42.678;26.324;2023-07-31T07:13:28;98178.06;;;22.63;80.63
21236;BME280;10775;42.678;26.324;2023-07-31T07:15:54;98186.81;;;22.88;81.47
21236;BME280;10775;42.678;26.324;2023-07-31T07:18:19;98189.19;;;23.04;76.33
21236;BME280;10775;42.678;26.324;2023-07-31T07:20:47;98195.69;;;22.88;78.15
21236;BME280;10775;42.678;26.324;2023-07-31T07:23:13;98200.19;;;23.33;79.07
21236;BME280;10775;42.678;26.324;2023-07-31T07:25:38;98201.03;;;23.33;77.26
21236;BME280;10775;42.678;26.324;2023-07-31T07:28:04;98205.00;;;23.61;75.66
21236;BME280;10775;42.678;26.324;2023-07-31T07:30:29;98209.16;;;23.98;77.28
21236;BME280;10775;42.678;26.324;2023-07-31T07:32:54;98213.66;;;24.08;78.94
21236;BME280;10775;42.678;26.324;2023-07-31T07:35:20;98207.59;;;23.29;79.04
21236;BME280;10775;42.678;26.324;2023-07-31T07:37:48;98211.19;;;22.94;73.68
21236;BME280;10775;42.678;26.324;2023-07-31T07:40:15;98217.91;;;22.65;70.09
21236;BME280;10775;42.678;26.324;2023-07-31T07:42:40;98217.72;;;22.44;66.11
21236;BME280;10775;42.678;26.324;2023-07-31T07:45:06;98214.06;;;22.09;67.37
21236;BME280;10775;42.678;26.324;2023-07-31T07:47:32;98213.44;;;21.82;79.78
21236;BME280;10775;42.678;26.324;2023-07-31T07:49:57;98214.56;;;21.90;75.60
21236;BME280;10775;42.678;26.324;2023-07-31T07:52:23;98201.00;;;22.88;66.23
21236;BME280;10775;42.678;26.324;2023-07-31T07:54:48;98210.44;;;23.71;64.52
21236;BME280;10775;42.678;26.324;2023-07-31T07:57:14;98213.13;;;24.15;71.77
21236;BME280;10775;42.678;26.324;2023-07-31T07:59:40;98206.59;;;23.53;77.76
21236;BME280;10775;42.678;26.324;2023-07-31T08:02:06;98211.66;;;23.67;81.63
21236;BME280;10775;42.678;26.324;2023-07-31T08:04:31;98212.25;;;22.81;89.92
21236;BME280;10775;42.678;26.324;2023-07-31T08:06:57;98218.50;;;23.37;88.52
21236;BME280;10775;42.678;26.324;2023-07-31T08:09:22;98216.19;;;23.21;89.89
21236;BME280;10775;42.678;26.324;2023-07-31T08:11:48;98217.75;;;23.58;87.58
21236;BME280;10775;42.678;26.324;2023-07-31T08:14:13;98219.69;;;23.11;92.36
21236;BME280;10775;42.678;26.324;2023-07-31T08:16:39;98219.53;;;23.69;89.34
21236;BME280;10775;42.678;26.324;2023-07-31T08:19:04;98217.66;;;24.03;86.78
21236;BME280;10775;42.678;26.324;2023-07-31T08:21:31;98223.31;;;24.53;84.12
21236;BME280;10775;42.678;26.324;2023-07-31T08:23:56;98214.09;;;24.67;83.92
21236;BME280;10775;42.678;26.324;2023-07-31T08:26:22;98218.09;;;24.72;83.15
21236;BME280;10775;42.678;26.324;2023-07-31T08:28:48;98216.50;;;24.49;83.15
21236;BME280;10775;42.678;26.324;2023-07-31T08:31:13;98208.06;;;23.12;96.96
21236;BME280;10775;42.678;26.324;2023-07-31T08:33:39;98201.47;;;23.72;91.13
21236;BME280;10775;42.678;26.324;2023-07-31T08:36:07;98194.09;;;24.61;87.10
21236;BME280;10775;42.678;26.324;2023-07-31T08:38:33;98181.94;;;24.99;83.97
21236;BME280;10775;42.678;26.324;2023-07-31T08:40:58;98170.41;;;24.47;86.06
21236;BME280;10775;42.678;26.324;2023-07-31T08:43:27;98182.94;;;24.98;83.73
21236;BME280;10775;42.678;26.324;2023-07-31T08:45:53;98177.31;;;25.01;83.11
21236;BME280;10775;42.678;26.324;2023-07-31T08:48:20;98176.25;;;24.83;83.99
21236;BME280;10775;42.678;26.324;2023-07-31T08:50:46;98174.91;;;24.98;82.66
21236;BME280;10775;42.678;26.324;2023-07-31T08:53:11;98174.66;;;25.32;83.12
21236;BME280;10775;42.678;26.324;2023-07-31T08:55:38;98176.25;;;25.44;80.34
21236;BME280;10775;42.678;26.324;2023-07-31T08:58:04;98165.53;;;25.44;80.17
21236;BME280;10775;42.678;26.324;2023-07-31T09:00:32;98165.81;;;25.51;79.44
21236;BME280;10775;42.678;26.324;2023-07-31T09:03:09;98166.41;;;25.64;78.11
21236;BME280;10775;42.678;26.324;2023-07-31T09:05:36;98162.47;;;25.68;77.56
21236;BME280;10775;42.678;26.324;2023-07-31T09:08:03;98171.72;;;25.85;76.19
21236;BME280;10775;42.678;26.324;2023-07-31T09:10:29;98166.56;;;25.82;75.86
21236;BME280;10775;42.678;26.324;2023-07-31T09:12:55;98161.59;;;25.48;84.51
21236;BME280;10775;42.678;26.324;2023-07-31T09:15:21;98159.56;;;23.95;96.28
21236;BME280;10775;42.678;26.324;2023-07-31T09:17:47;98158.25;;;23.12;91.54
21236;BME280;10775;42.678;26.324;2023-07-31T09:20:18;98154.88;;;22.99;93.79
21236;BME280;10775;42.678;26.324;2023-07-31T09:22:45;98159.81;;;23.37;93.58
21236;BME280;10775;42.678;26.324;2023-07-31T09:27:54;98165.47;;;23.78;94.87
21236;BME280;10775;42.678;26.324;2023-07-31T09:30:20;98156.22;;;24.35;83.64
21236;BME280;10775;42.678;26.324;2023-07-31T09:32:48;98147.97;;;24.59;81.95
21236;BME280;10775;42.678;26.324;2023-07-31T09:37:43;98143.09;;;25.35;76.73
21236;BME280;10775;42.678;26.324;2023-07-31T09:40:09;98140.59;;;24.51;80.25
21236;BME280;10775;42.678;26.324;2023-07-31T09:42:49;98139.09;;;26.48;70.97
21236;BME280;10775;42.678;26.324;2023-07-31T09:45:15;98138.41;;;27.03;67.90
21236;BME280;10775;42.678;26.324;2023-07-31T09:47:46;98140.03;;;27.51;66.08
21236;BME280;10775;42.678;26.324;2023-07-31T09:50:14;98128.78;;;28.01;63.34
21236;BME280;10775;42.678;26.324;2023-07-31T09:52:40;98128.31;;;28.24;63.64
21236;BME280;10775;42.678;26.324;2023-07-31T09:55:05;98137.44;;;27.77;64.58
21236;BME280;10775;42.678;26.324;2023-07-31T09:57:31;98127.19;;;28.08;63.51
21236;BME280;10775;42.678;26.324;2023-07-31T09:59:58;98130.41;;;27.94;64.38
21236;BME280;10775;42.678;26.324;2023-07-31T10:02:24;98130.69;;;26.90;74.61
21236;BME280;10775;42.678;26.324;2023-07-31T10:04:51;98136.22;;;26.79;70.68
21236;BME280;10775;42.678;26.324;2023-07-31T10:07:22;98146.38;;;26.85;66.70
21236;BME280;10775;42.678;26.324;2023-07-31T10:09:48;98135.72;;;26.56;73.52
21236;BME280;10775;42.678;26.324;2023-07-31T10:12:16;98133.75;;;26.58;71.08
21236;BME280;10775;42.678;26.324;2023-07-31T10:14:44;98142.91;;;26.65;65.76
21236;BME280;10775;42.678;26.324;2023-07-31T10:17:10;98144.50;;;25.99;66.05
21236;BME280;10775;42.678;26.324;2023-07-31T10:19:36;98143.09;;;26.05;70.94
21236;BME280;10775;42.678;26.324;2023-07-31T10:22:03;98148.72;;;25.92;72.87
21236;BME280;10775;42.678;26.324;2023-07-31T10:24:29;98148.38;;;25.56;70.89
21236;BME280;10775;42.678;26.324;2023-07-31T10:26:57;98142.91;;;25.68;66.66
21236;BME280;10775;42.678;26.324;2023-07-31T10:29:24;98143.88;;;25.67;60.26
21236;BME280;10775;42.678;26.324;2023-07-31T10:31:50;98151.09;;;25.76;69.29
21236;BME280;10775;42.678;26.324;2023-07-31T10:34:16;98149.13;;;25.28;72.05
21236;BME280;10775;42.678;26.324;2023-07-31T10:36:42;98149.66;;;25.72;70.94
21236;BME280;10775;42.678;26.324;2023-07-31T10:39:37;98157.75;;;25.91;67.82
21236;BME280;10775;42.678;26.324;2023-07-31T10:42:12;98144.75;;;26.35;69.71
21236;BME280;10775;42.678;26.324;2023-07-31T10:44:43;98151.56;;;25.91;70.47
21236;BME280;10775;42.678;26.324;2023-07-31T10:47:09;98144.44;;;25.60;69.56
21236;BME280;10775;42.678;26.324;2023-07-31T10:49:34;98126.97;;;25.66;72.00
21236;BME280;10775;42.678;26.324;2023-07-31T10:52:03;98128.00;;;25.75;64.67
21236;BME280;10775;42.678;26.324;2023-07-31T10:54:28;98131.81;;;26.21;62.34
21236;BME280;10775;42.678;26.324;2023-07-31T10:56:54;98125.88;;;26.56;70.35
21236;BME280;10775;42.678;26.324;2023-07-31T10:59:19;98125.09;;;27.11;60.19
21236;BME280;10775;42.678;26.324;2023-07-31T11:01:56;98130.03;;;27.16;66.85
21236;BME280;10775;42.678;26.324;2023-07-31T11:04:27;98129.34;;;27.04;67.16
21236;BME280;10775;42.678;26.324;2023-07-31T11:07:01;98115.31;;;27.20;44.25
21236;BME280;10775;42.678;26.324;2023-07-31T11:09:29;98121.41;;;27.12;60.96
21236;BME280;10775;42.678;26.324;2023-07-31T11:11:56;98109.63;;;27.96;56.36
21236;BME280;10775;42.678;26.324;2023-07-31T11:14:21;98109.56;;;28.32;62.91
21236;BME280;10775;42.678;26.324;2023-07-31T11:16:50;98102.38;;;28.14;59.21
21236;BME280;10775;42.678;26.324;2023-07-31T11:19:26;98110.34;;;27.52;64.88
21236;BME280;10775;42.678;26.324;2023-07-31T11:21:52;98103.69;;;27.74;58.89
21236;BME280;10775;42.678;26.324;2023-07-31T11:24:18;98095.03;;;27.99;49.77
21236;BME280;10775;42.678;26.324;2023-07-31T11:26:53;98086.00;;;27.82;61.27
21236;BME280;10775;42.678;26.324;2023-07-31T11:29:19;98088.28;;;28.12;46.69
21236;BME280;10775;42.678;26.324;2023-07-31T11:31:46;98083.91;;;28.37;51.79
21236;BME280;10775;42.678;26.324;2023-07-31T11:34:12;98080.56;;;28.96;61.89
21236;BME280;10775;42.678;26.324;2023-07-31T11:36:37;98078.41;;;28.99;62.09
21236;BME280;10775;42.678;26.324;2023-07-31T11:39:08;98069.28;;;28.14;63.38
21236;BME280;10775;42.678;26.324;2023-07-31T11:41:34;98069.56;;;27.85;67.34
21236;BME280;10775;42.678;26.324;2023-07-31T11:44:00;98063.72;;;28.07;66.38
21236;BME280;10775;42.678;26.324;2023-07-31T11:46:26;98071.69;;;27.63;67.90
21236;BME280;10775;42.678;26.324;2023-07-31T11:48:51;98071.97;;;27.15;66.38
21236;BME280;10775;42.678;26.324;2023-07-31T11:51:20;98065.59;;;26.98;65.37
21236;BME280;10775;42.678;26.324;2023-07-31T11:53:51;98067.22;;;27.08;60.57
21236;BME280;10775;42.678;26.324;2023-07-31T11:56:19;98073.53;;;27.17;68.07
21236;BME280;10775;42.678;26.324;2023-07-31T11:58:47;98066.09;;;27.11;59.22
21236;BME280;10775;42.678;26.324;2023-07-31T12:01:18;98059.88;;;27.20;66.67
21236;BME280;10775;42.678;26.324;2023-07-31T12:03:44;98057.03;;;27.40;55.16
21236;BME280;10775;42.678;26.324;2023-07-31T12:06:10;98050.59;;;27.68;62.51
21236;BME280;10775;42.678;26.324;2023-07-31T12:08:36;98052.25;;;28.23;63.21
21236;BME280;10775;42.678;26.324;2023-07-31T12:11:05;98039.91;;;28.12;62.53
21236;BME280;10775;42.678;26.324;2023-07-31T12:13:32;98052.28;;;28.49;64.11
21236;BME280;10775;42.678;26.324;2023-07-31T12:16:00;98047.00;;;27.95;54.47
21236;BME280;10775;42.678;26.324;2023-07-31T12:18:27;98043.91;;;28.60;64.11
21236;BME280;10775;42.678;26.324;2023-07-31T12:21:01;98037.06;;;28.14;65.77
21236;BME280;10775;42.678;26.324;2023-07-31T12:23:31;98039.50;;;28.25;65.24
21236;BME280;10775;42.678;26.324;2023-07-31T12:26:03;98041.94;;;27.74;64.73
21236;BME280;10775;42.678;26.324;2023-07-31T12:28:30;98045.47;;;27.57;58.21
21236;BME280;10775;42.678;26.324;2023-07-31T12:31:00;98030.44;;;27.46;60.44
21236;BME280;10775;42.678;26.324;2023-07-31T12:33:33;98035.38;;;27.87;64.40
21236;BME280;10775;42.678;26.324;2023-07-31T12:36:01;98028.34;;;27.94;62.15
21236;BME280;10775;42.678;26.324;2023-07-31T12:38:27;98027.88;;;28.25;58.61
21236;BME280;10775;42.678;26.324;2023-07-31T12:40:53;98034.41;;;28.22;64.49
21236;BME280;10775;42.678;26.324;2023-07-31T12:43:18;98028.47;;;28.10;58.94
21236;BME280;10775;42.678;26.324;2023-07-31T12:45:44;98020.19;;;28.04;63.33
21236;BME280;10775;42.678;26.324;2023-07-31T12:48:09;98025.16;;;27.90;58.78
21236;BME280;10775;42.678;26.324;2023-07-31T12:50:35;98013.88;;;27.87;63.05
21236;BME280;10775;42.678;26.324;2023-07-31T12:53:02;98015.50;;;28.58;57.88
21236;BME280;10775;42.678;26.324;2023-07-31T12:55:28;98014.81;;;28.30;55.79
21236;BME280;10775;42.678;26.324;2023-07-31T12:57:55;98013.34;;;28.61;57.03
21236;BME280;10775;42.678;26.324;2023-07-31T13:00:21;98010.03;;;28.76;56.51
21236;BME280;10775;42.678;26.324;2023-07-31T13:02:47;98001.94;;;28.68;53.29